Lebork, Poland

7:21 PM CEST on May 29, 2015 (GMT +0200)
NIESIOLOWICE KASZUBY | | Change Station
CLOSE
Current Station
Personal Weather Station
Location: NIESIOLOWICE, POMORSKIE, PL
Elevation: 610 ft
Nearby Weather Stations

Elev 610 ft 54.21 °N, 17.85 °E | Updated 2 seconds ago

Clear
Clear
61.5 °F
Feels Like 61.5 °F
N
2.5
Wind Variable Wind from South
Gusts 7.6 mph

Today
High -- | Low -- °F
--% Chance of Precip.
Yesterday
High -- | Low -- °F
Precip. -- in
4:24 AM 9:09 PM
Waxing Gibbous, 85% visible
Pressure 29.86 in
Visibility -9999.0 miles
Clouds
Dew Point 43 °F
Humidity 51%
Rainfall 0.02 in
Snow Depth Not available.
UV Not available.
Pollen Not available.
Air Quality Not available.
Flu Activity Not available.
METAR EPGD 291700Z 06008KT CAVOK 12/06 Q1011

More Conditions Fewer Conditions

Pressure 29.86 in
Visibility -9999.0 miles
Clouds
Dew Point 43 °F
Humidity 51%
Rainfall 0.02 in
Snow Depth Not available.
UV Not available.
Pollen Not available.
Air Quality Not available.
Flu Activity Not available.
METAR EPGD 291700Z 06008KT CAVOK 12/06 Q1011

More Conditions Fewer Conditions

10-Day Weather Forecast

Almanac

Astronomy

May. 29, 2015 Rise Set
Actual Time
Civil Twilight
Nautical Twilight
Astronomical Twilight
Moon
Length of Visible Light
Length of Day
Tomorrow will be .
, % of the Moon is Illuminated

Today's Extremes

Country Highs Country Lows

Community

WunderPhotos

Upload Photos

1,825,306 photos uploaded!

WunderBlogs® & News

Nearby

Air Quality

  Air Quality AQ Index Pollutant
Not available.

Snow Depth

Station Depth Elevation

Earthquake Activity

City Distance Mag. Time & Date
Minimum magnitude displayed is 2.5.

Coastal Water Temperatures

Place Temperature

Stations

Nearby Weather Stations

Station Location Temp. Windchill Dew Point Humidity Wind Precip. Elev Updated Type